createdAt,value
2023-05-05T00:02:19.019Z,100309.25
2023-05-05T00:04:49.575Z,100302.13
2023-05-05T00:07:19.855Z,100303.41
2023-05-05T00:09:50.335Z,100309.47
2023-05-05T00:12:20.865Z,100303.03
2023-05-05T00:14:53.849Z,100307.78
2023-05-05T00:17:26.586Z,100301.84
2023-05-05T00:19:57.190Z,100297.53
2023-05-05T00:22:27.477Z,100292.38
2023-05-05T00:24:58.078Z,100297.44
2023-05-05T00:27:28.340Z,100294.25
2023-05-05T00:30:01.477Z,100297.31
2023-05-05T00:32:32.994Z,100290.75
2023-05-05T00:35:03.500Z,100296.84
2023-05-05T00:37:33.738Z,100294.66
2023-05-05T00:40:12.054Z,100294.91
2023-05-05T00:42:44.418Z,100289.31
2023-05-05T00:45:19.051Z,100286.22
2023-05-05T00:47:51.616Z,100286.81
2023-05-05T00:50:26.669Z,100297.13
2023-05-05T00:52:59.361Z,100293.88
2023-05-05T00:55:34.447Z,100292.31
2023-05-05T00:58:05.941Z,100292.28
2023-05-05T01:00:38.896Z,100291.41
2023-05-05T01:03:09.432Z,100295.81
2023-05-05T01:05:51.623Z,100294.94
2023-05-05T01:08:37.892Z,100295.03
2023-05-05T01:11:17.406Z,100290.97
2023-05-05T01:13:55.658Z,100288.09
2023-05-05T01:16:32.761Z,100292.25
2023-05-05T01:19:23.092Z,100290.00
2023-05-05T01:22:00.817Z,100294.38
2023-05-05T01:24:54.599Z,100296.72
2023-05-05T01:28:08.914Z,100288.34
2023-05-05T01:31:07.620Z,100285.34
2023-05-05T01:33:47.591Z,100294.75
2023-05-05T01:36:25.545Z,100290.97
2023-05-05T01:39:03.756Z,100288.69
2023-05-05T01:41:41.507Z,100284.63
2023-05-05T01:44:14.630Z,100284.16
2023-05-05T01:46:44.928Z,100279.25
2023-05-05T01:49:21.207Z,100276.97
2023-05-05T01:51:52.958Z,100274.72
2023-05-05T01:54:24.441Z,100275.47
2023-05-05T01:56:57.590Z,100282.31
2023-05-05T01:59:29.396Z,100282.69
2023-05-05T02:02:02.331Z,100276.81
2023-05-05T02:04:39.255Z,100278.84
2023-05-05T02:07:13.831Z,100273.84
2023-05-05T02:09:47.880Z,100269.53
2023-05-05T02:12:21.080Z,100265.31
2023-05-05T02:14:54.161Z,100273.44
2023-05-05T02:17:26.339Z,100267.31
2023-05-05T02:20:07.709Z,100272.59
2023-05-05T02:22:38.422Z,100263.28
2023-05-05T02:25:10.312Z,100267.25
2023-05-05T02:27:44.890Z,100267.75
2023-05-05T02:30:18.924Z,100272.78
2023-05-05T02:32:51.739Z,100274.16
2023-05-05T02:35:27.407Z,100264.78
2023-05-05T02:38:02.944Z,100266.31
2023-05-05T02:40:37.776Z,100263.19
2023-05-05T02:43:14.349Z,100273.16
2023-05-05T02:45:45.089Z,100271.50
2023-05-05T02:48:16.212Z,100270.91
2023-05-05T02:50:53.659Z,100278.25
2023-05-05T02:53:29.175Z,100281.22
2023-05-05T02:56:08.071Z,100281.84
2023-05-05T02:58:46.378Z,100276.81
2023-05-05T03:01:29.940Z,100276.06
2023-05-05T03:04:07.862Z,100283.16
2023-05-05T03:06:45.590Z,100285.09
2023-05-05T03:09:24.559Z,100285.56
2023-05-05T03:12:02.590Z,100288.09
2023-05-05T03:14:38.727Z,100286.41
2023-05-05T03:17:12.780Z,100289.28
2023-05-05T03:19:45.419Z,100290.84
2023-05-05T03:22:31.807Z,100285.47
2023-05-05T03:25:02.384Z,100287.88
2023-05-05T03:27:35.727Z,100296.13
2023-05-05T03:30:07.600Z,100283.53
2023-05-05T03:32:38.397Z,100296.13
2023-05-05T03:35:12.192Z,100288.34
2023-05-05T03:37:45.082Z,100297.47
2023-05-05T03:40:16.290Z,100297.91
2023-05-05T03:42:46.715Z,100291.09
2023-05-05T03:45:17.352Z,100300.44
2023-05-05T03:47:49.828Z,100294.19
2023-05-05T03:50:20.243Z,100304.66
2023-05-05T03:52:53.448Z,100292.38
2023-05-05T03:55:25.094Z,100294.91
2023-05-05T03:57:58.288Z,100299.88
2023-05-05T04:00:28.588Z,100297.31
2023-05-05T04:02:59.195Z,100294.34
2023-05-05T04:05:29.525Z,100293.63
2023-05-05T04:08:03.527Z,100300.59
2023-05-05T04:10:34.338Z,100306.69
2023-05-05T04:13:05.151Z,100299.59
2023-05-05T04:15:38.290Z,100303.06
2023-05-05T04:18:08.707Z,100311.53
2023-05-05T04:20:40.745Z,100303.97
2023-05-05T04:23:13.625Z,100311.66
2023-05-05T04:25:44.291Z,100311.72
2023-05-05T04:28:14.929Z,100311.22
2023-05-05T04:30:47.554Z,100308.69
2023-05-05T04:33:18.626Z,100317.16
2023-05-05T04:35:48.845Z,100318.03
2023-05-05T04:38:22.406Z,100325.72
2023-05-05T04:40:52.764Z,100315.25
2023-05-05T04:43:23.098Z,100325.31
2023-05-05T04:45:59.384Z,100318.81
2023-05-05T04:48:31.200Z,100320.22
2023-05-05T04:51:07.084Z,100328.78
2023-05-05T04:53:39.977Z,100325.47
2023-05-05T04:56:10.466Z,100313.50
2023-05-05T04:58:42.987Z,100325.50
2023-05-05T05:01:13.537Z,100328.34
2023-05-05T05:03:51.941Z,100330.84
2023-05-05T05:06:24.779Z,100334.72
2023-05-05T05:08:58.071Z,100350.19
2023-05-05T05:11:28.418Z,100333.69
2023-05-05T05:13:58.685Z,100335.91
2023-05-05T05:16:32.321Z,100329.72
2023-05-05T05:19:02.876Z,100331.31
2023-05-05T05:21:33.084Z,100331.56
2023-05-05T05:24:11.803Z,100319.91
2023-05-05T05:26:42.603Z,100325.81
2023-05-05T05:29:13.131Z,100329.16
2023-05-05T05:31:43.558Z,100332.53
2023-05-05T05:34:14.042Z,100328.91
2023-05-05T05:36:44.249Z,100336.59
2023-05-05T05:39:17.385Z,100338.78
2023-05-05T05:41:47.715Z,100341.97
2023-05-05T05:44:21.017Z,100341.00
2023-05-05T05:46:56.512Z,100344.19
2023-05-05T05:49:33.910Z,100342.03
2023-05-05T05:52:07.246Z,100338.34
2023-05-05T05:54:40.434Z,100339.09
2023-05-05T05:57:10.737Z,100348.09
2023-05-05T05:59:41.014Z,100346.47
2023-05-05T06:02:11.281Z,100344.38
2023-05-05T06:04:42.768Z,100346.53
2023-05-05T06:07:18.675Z,100350.53
2023-05-05T06:09:51.685Z,100349.03
2023-05-05T06:12:22.000Z,100349.78
2023-05-05T06:14:52.234Z,100347.81
2023-05-05T06:17:23.696Z,100345.31
2023-05-05T06:19:54.578Z,100348.28
2023-05-05T06:22:25.077Z,100345.50
2023-05-05T06:25:01.041Z,100342.50
2023-05-05T06:27:31.444Z,100354.84
2023-05-05T06:30:01.644Z,100345.47
2023-05-05T06:32:31.962Z,100352.06
2023-05-05T06:35:02.612Z,100354.44
2023-05-05T06:37:35.056Z,100356.56
2023-05-05T06:40:10.729Z,100357.22
2023-05-05T06:42:41.632Z,100353.41
2023-05-05T06:45:13.703Z,100345.56
2023-05-05T06:47:46.340Z,100355.28
2023-05-05T06:50:26.695Z,100358.06
2023-05-05T06:52:57.032Z,100349.66
2023-05-05T06:55:30.258Z,100344.78
2023-05-05T06:58:01.154Z,100345.50
2023-05-05T07:00:31.549Z,100344.53
2023-05-05T07:03:07.324Z,100344.47
2023-05-05T07:05:38.047Z,100346.69
2023-05-05T07:08:12.072Z,100342.53
2023-05-05T07:10:45.181Z,100348.66
2023-05-05T07:13:15.585Z,100344.66
2023-05-05T07:15:46.833Z,100342.09
2023-05-05T07:18:17.362Z,100338.47
2023-05-05T07:20:47.758Z,100346.88
2023-05-05T07:23:20.436Z,100338.00
2023-05-05T07:25:53.627Z,100340.06
2023-05-05T07:28:24.932Z,100337.66
2023-05-05T07:30:58.049Z,100343.19
2023-05-05T07:33:28.569Z,100342.41
2023-05-05T07:36:04.763Z,100350.16
2023-05-05T07:38:35.378Z,100343.13
2023-05-05T07:41:09.205Z,100338.19
2023-05-05T07:43:42.350Z,100341.50
2023-05-05T07:46:14.494Z,100339.75
2023-05-05T07:48:47.649Z,100327.06
2023-05-05T07:51:17.933Z,100344.72
2023-05-05T07:53:50.390Z,100341.84
2023-05-05T07:56:25.961Z,100339.94
2023-05-05T07:58:56.420Z,100337.25
2023-05-05T08:01:26.834Z,100333.50
2023-05-05T08:03:59.978Z,100335.53
2023-05-05T08:09:03.690Z,100326.84
2023-05-05T08:11:38.688Z,100333.94
2023-05-05T08:14:09.914Z,100332.28
2023-05-05T08:16:40.205Z,100336.88
2023-05-05T08:19:21.518Z,100346.00
2023-05-05T08:22:01.559Z,100336.84
2023-05-05T08:24:35.170Z,100340.59
2023-05-05T08:27:14.160Z,100348.88
2023-05-05T08:29:44.536Z,100344.31
2023-05-05T08:32:16.463Z,100343.81
2023-05-05T08:34:47.003Z,100337.66
2023-05-05T08:37:19.124Z,100335.81
2023-05-05T08:39:52.594Z,100341.19
2023-05-05T08:42:36.280Z,100343.84
2023-05-05T08:45:14.653Z,100339.50
2023-05-05T08:47:45.316Z,100339.28
2023-05-05T08:50:22.201Z,100339.47
2023-05-05T08:52:56.788Z,100343.88
2023-05-05T08:55:28.634Z,100335.97
2023-05-05T08:58:03.717Z,100336.59
2023-05-05T09:00:34.428Z,100332.66
2023-05-05T09:03:09.825Z,100329.25
2023-05-05T09:05:42.120Z,100317.06
2023-05-05T09:08:14.390Z,100319.50
2023-05-05T09:10:45.452Z,100317.47
2023-05-05T09:13:18.529Z,100313.75
2023-05-05T09:15:51.741Z,100313.28
2023-05-05T09:18:22.238Z,100317.84
2023-05-05T09:20:52.505Z,100314.50
2023-05-05T09:23:23.966Z,100314.81
2023-05-05T09:26:11.618Z,100310.19
2023-05-05T09:28:55.751Z,100305.91
2023-05-05T09:31:31.155Z,100314.78
2023-05-05T09:34:02.133Z,100303.09
2023-05-05T09:36:48.089Z,100311.22
2023-05-05T09:39:21.674Z,100306.13
2023-05-05T09:41:52.362Z,100302.84
2023-05-05T09:44:36.856Z,100302.47
2023-05-05T09:47:21.946Z,100299.31
2023-05-05T09:50:02.475Z,100290.19
2023-05-05T09:52:34.552Z,100293.44
2023-05-05T09:55:12.281Z,100282.97
2023-05-05T09:57:42.737Z,100288.22
2023-05-05T10:00:24.769Z,100286.72
2023-05-05T10:02:55.192Z,100284.53
2023-05-05T10:05:29.478Z,100287.78
2023-05-05T10:08:15.464Z,100283.56
2023-05-05T10:10:53.781Z,100281.88
2023-05-05T10:13:25.319Z,100282.97
2023-05-05T10:16:00.377Z,100286.34
2023-05-05T10:18:31.999Z,100278.03
2023-05-05T10:21:03.948Z,100275.84
2023-05-05T10:23:42.224Z,100279.47
2023-05-05T10:26:14.851Z,100275.91
2023-05-05T10:28:48.853Z,100270.50
2023-05-05T10:31:32.377Z,100266.56
2023-05-05T10:34:07.073Z,100267.78
2023-05-05T10:36:38.031Z,100269.88
2023-05-05T10:39:11.010Z,100253.38
2023-05-05T10:41:41.718Z,100248.41
2023-05-05T10:44:13.133Z,100223.78
2023-05-05T10:46:46.658Z,100247.09
2023-05-05T10:49:21.342Z,100254.50
2023-05-05T10:52:08.107Z,100251.06
2023-05-05T10:54:46.324Z,100250.38
2023-05-05T10:57:19.469Z,100237.31
2023-05-05T10:59:49.731Z,100239.94
2023-05-05T11:02:28.322Z,100235.72
2023-05-05T11:05:18.346Z,100239.47
2023-05-05T11:07:50.257Z,100231.97
2023-05-05T11:10:23.291Z,100232.72
2023-05-05T11:13:21.755Z,100227.88
2023-05-05T11:15:54.425Z,100228.28
2023-05-05T11:18:36.931Z,100225.28
2023-05-05T11:21:15.874Z,100222.88
2023-05-05T11:23:53.618Z,100222.19
2023-05-05T11:26:54.494Z,100212.72
2023-05-05T11:29:24.827Z,100202.78
2023-05-05T11:32:16.450Z,100200.84
2023-05-05T11:34:55.397Z,100196.75
2023-05-05T11:37:26.881Z,100198.88
2023-05-05T11:40:07.278Z,100196.25
2023-05-05T11:42:37.955Z,100192.47
2023-05-05T11:45:25.081Z,100195.69
2023-05-05T11:47:55.581Z,100184.94
2023-05-05T11:50:28.577Z,100177.13
2023-05-05T11:52:59.227Z,100176.91
2023-05-05T11:55:30.858Z,100168.53
2023-05-05T11:58:01.211Z,100177.97
2023-05-05T12:00:37.024Z,100175.44
2023-05-05T12:03:09.094Z,100175.81
2023-05-05T12:05:45.237Z,100167.34
2023-05-05T12:08:17.827Z,100160.63
2023-05-05T12:10:48.193Z,100161.72
2023-05-05T12:13:22.227Z,100162.91
2023-05-05T12:15:52.519Z,100162.50
2023-05-05T12:18:23.148Z,100161.72
2023-05-05T12:20:59.396Z,100159.41
2023-05-05T12:23:30.415Z,100155.59
2023-05-05T12:26:00.672Z,100154.13
2023-05-05T12:28:46.819Z,100143.59
2023-05-05T12:31:17.202Z,100152.94
2023-05-05T12:33:48.325Z,100146.19
2023-05-05T12:36:21.563Z,100153.94
2023-05-05T12:38:52.786Z,100154.97
2023-05-05T12:41:23.606Z,100144.56
2023-05-05T12:43:58.809Z,100135.19
2023-05-05T12:46:29.873Z,100137.47
2023-05-05T12:49:04.989Z,100130.59
2023-05-05T12:51:39.555Z,100129.88
2023-05-05T12:54:11.107Z,100131.97
2023-05-05T12:56:42.810Z,100124.38
2023-05-05T12:59:14.809Z,100128.94
2023-05-05T13:01:53.035Z,100125.00
2023-05-05T13:04:24.752Z,100115.13
2023-05-05T13:07:11.922Z,100101.31
2023-05-05T13:09:42.777Z,100108.38
2023-05-05T13:12:14.738Z,100090.13
2023-05-05T13:14:48.138Z,100072.00
2023-05-05T13:17:18.470Z,100086.50
2023-05-05T13:19:48.995Z,100093.09
2023-05-05T13:22:26.431Z,100097.34
2023-05-05T13:25:00.381Z,100092.09
2023-05-05T13:27:30.741Z,100091.66
2023-05-05T13:30:04.484Z,100080.53
2023-05-05T13:32:35.623Z,100080.53
2023-05-05T13:35:06.449Z,100082.88
2023-05-05T13:37:39.370Z,100075.03
2023-05-05T13:40:11.545Z,100077.25
2023-05-05T13:42:41.891Z,100076.22
2023-05-05T13:45:14.468Z,100076.84
2023-05-05T13:47:45.397Z,100072.34
2023-05-05T13:50:15.740Z,100065.63
2023-05-05T13:52:48.555Z,100062.31
2023-05-05T13:55:19.052Z,100064.72
2023-05-05T13:57:49.274Z,100066.69
2023-05-05T14:00:21.338Z,100069.81
2023-05-05T14:02:51.805Z,100063.34
2023-05-05T14:05:22.463Z,100066.00
2023-05-05T14:07:55.596Z,100061.34
2023-05-05T14:10:26.780Z,100065.00
2023-05-05T14:12:57.340Z,100056.78
2023-05-05T14:15:28.272Z,100060.06
2023-05-05T14:17:59.910Z,100060.28
2023-05-05T14:20:30.482Z,100061.09
2023-05-05T14:23:03.389Z,100061.50
2023-05-05T14:25:33.684Z,100057.13
2023-05-05T14:28:04.755Z,100053.81
2023-05-05T14:30:35.034Z,100042.88
2023-05-05T14:33:05.305Z,100051.69
2023-05-05T14:35:35.732Z,100043.53
2023-05-05T14:38:08.882Z,100046.56
2023-05-05T14:40:39.152Z,100053.41
2023-05-05T14:43:09.368Z,100045.16
2023-05-05T14:45:39.772Z,100039.19
2023-05-05T14:48:10.556Z,100027.31
2023-05-05T14:50:42.751Z,100049.38
2023-05-05T14:53:15.629Z,100045.00
2023-05-05T14:55:45.887Z,100041.28
2023-05-05T14:58:19.926Z,100045.81
2023-05-05T15:00:50.247Z,100043.03
2023-05-05T15:03:20.761Z,100039.06
2023-05-05T15:05:51.341Z,100047.47
2023-05-05T15:08:24.424Z,100051.91
2023-05-05T15:10:54.819Z,100046.25
2023-05-05T15:13:25.104Z,100043.84
2023-05-05T15:15:55.547Z,100049.16
2023-05-05T15:18:26.251Z,100047.63
2023-05-05T15:21:01.004Z,100044.03
2023-05-05T15:23:33.975Z,100045.91
2023-05-05T15:26:04.692Z,100047.16
2023-05-05T15:28:35.393Z,100038.28
2023-05-05T15:31:06.537Z,100046.56
2023-05-05T15:33:37.193Z,100044.03
2023-05-05T15:36:08.031Z,100041.84
2023-05-05T15:38:44.669Z,100040.25
2023-05-05T15:41:14.931Z,100048.00
2023-05-05T15:43:48.090Z,100043.22
2023-05-05T15:46:21.463Z,100029.88
2023-05-05T15:48:51.752Z,100036.69
2023-05-05T15:51:22.413Z,100030.47
2023-05-05T15:53:55.655Z,100028.75
2023-05-05T15:56:27.569Z,100026.19
2023-05-05T15:58:58.219Z,100031.81
2023-05-05T16:01:28.671Z,100033.25
2023-05-05T16:04:00.224Z,100030.81
2023-05-05T16:06:30.730Z,100022.91
2023-05-05T16:09:04.067Z,100001.44
2023-05-05T16:11:37.461Z,100023.00
2023-05-05T16:14:07.590Z,100019.50
2023-05-05T16:16:37.933Z,100016.38
2023-05-05T16:19:08.925Z,100020.53
2023-05-05T16:21:39.843Z,100023.09
2023-05-05T16:24:16.326Z,100016.03
2023-05-05T16:26:46.902Z,100020.19
2023-05-05T16:29:17.551Z,100017.31
2023-05-05T16:31:47.939Z,100017.72
2023-05-05T16:34:18.330Z,100017.31
2023-05-05T16:36:49.019Z,100016.09
2023-05-05T16:39:21.871Z,100023.75
2023-05-05T16:41:52.622Z,100022.31
2023-05-05T16:44:22.868Z,100015.66
2023-05-05T16:46:56.704Z,100010.06
2023-05-05T16:49:27.137Z,100018.56
2023-05-05T16:51:57.530Z,100016.91
2023-05-05T16:54:30.475Z,100018.97
2023-05-05T16:57:00.704Z,100020.44
2023-05-05T16:59:31.701Z,100019.75
2023-05-05T17:02:02.251Z,100030.06
2023-05-05T17:04:32.574Z,99998.13
2023-05-05T17:07:02.776Z,100026.31
2023-05-05T17:09:35.728Z,100024.63
2023-05-05T17:12:06.945Z,100021.91
2023-05-05T17:14:37.176Z,100023.31
2023-05-05T17:17:07.435Z,100028.03
2023-05-05T17:19:37.762Z,100028.59
2023-05-05T17:22:08.251Z,100022.28
2023-05-05T17:24:41.336Z,100022.03
2023-05-05T17:27:11.673Z,100029.81
2023-05-05T17:29:42.063Z,100032.22
2023-05-05T17:32:12.549Z,100038.13
2023-05-05T17:34:43.079Z,100036.34
2023-05-05T17:37:13.320Z,100036.22
2023-05-05T17:39:48.504Z,100026.84
2023-05-05T17:42:23.108Z,100035.78
2023-05-05T17:44:53.441Z,100037.53
2023-05-05T17:47:24.463Z,100031.19
2023-05-05T17:49:56.516Z,100036.19
2023-05-05T17:52:27.256Z,100045.13
2023-05-05T17:55:03.332Z,100034.03
2023-05-05T17:57:33.687Z,100044.19
2023-05-05T18:00:06.833Z,100040.53
2023-05-05T18:02:38.510Z,100047.00
2023-05-05T18:05:09.600Z,100047.47
2023-05-05T18:07:40.706Z,100046.03
2023-05-05T18:10:14.202Z,100059.06
2023-05-05T18:12:45.765Z,100055.16
2023-05-05T18:15:16.169Z,100060.31
2023-05-05T18:17:51.568Z,100046.88
2023-05-05T18:20:22.022Z,100059.97
2023-05-05T18:22:52.464Z,100056.88
2023-05-05T18:25:25.564Z,100053.59
2023-05-05T18:27:55.843Z,100057.50
2023-05-05T18:30:26.184Z,100056.91
2023-05-05T18:32:56.559Z,100054.47
2023-05-05T18:35:26.855Z,100051.16
2023-05-05T18:37:57.262Z,100053.22
2023-05-05T18:40:30.280Z,100068.66
2023-05-05T18:43:00.812Z,100055.84
2023-05-05T18:45:31.214Z,100057.41
2023-05-05T18:48:02.457Z,100064.09
2023-05-05T18:50:35.003Z,100061.47
2023-05-05T18:53:05.332Z,100059.63
2023-05-05T18:55:41.051Z,100063.16
2023-05-05T18:58:13.724Z,100079.88
2023-05-05T19:00:44.149Z,100072.53
2023-05-05T19:03:14.742Z,100081.03
2023-05-05T19:05:45.046Z,100081.91
2023-05-05T19:08:15.316Z,100079.22
2023-05-05T19:10:48.534Z,100085.91
2023-05-05T19:13:18.907Z,100088.06
2023-05-05T19:15:49.263Z,100088.59
2023-05-05T19:18:19.724Z,100084.75
2023-05-05T19:20:52.602Z,100079.22
2023-05-05T19:23:23.140Z,100088.69
2023-05-05T19:25:57.397Z,100082.00
2023-05-05T19:28:27.678Z,100079.50
2023-05-05T19:30:58.687Z,100084.34
2023-05-05T19:33:29.084Z,100086.19
2023-05-05T19:35:59.505Z,100087.47
2023-05-05T19:38:29.829Z,100083.16
2023-05-05T19:41:02.705Z,100086.78
2023-05-05T19:43:32.985Z,100085.25
2023-05-05T19:46:03.388Z,100084.25
2023-05-05T19:48:34.040Z,100088.53
2023-05-05T19:51:06.857Z,100089.38
2023-05-05T19:53:40.309Z,100090.53
2023-05-05T19:56:13.247Z,100089.53
2023-05-05T19:58:57.706Z,100090.00
2023-05-05T20:01:31.532Z,100087.34
2023-05-05T20:04:03.775Z,100090.47
2023-05-05T20:06:34.363Z,100084.84
2023-05-05T20:09:10.875Z,100085.50
2023-05-05T20:11:44.298Z,100066.31
2023-05-05T20:14:15.623Z,100088.50
2023-05-05T20:16:51.549Z,100089.63
2023-05-05T20:19:24.232Z,100085.47
2023-05-05T20:21:54.630Z,100086.66
2023-05-05T20:24:24.956Z,100086.44
2023-05-05T20:27:02.059Z,100079.06
2023-05-05T20:29:32.276Z,100082.22
2023-05-05T20:32:02.599Z,100080.00
2023-05-05T20:34:33.058Z,100082.16
2023-05-05T20:37:03.504Z,100081.13
2023-05-05T20:39:33.836Z,100081.06
2023-05-05T20:42:08.677Z,100074.22
2023-05-05T20:44:46.109Z,100080.84
2023-05-05T20:47:16.486Z,100083.00
2023-05-05T20:49:49.607Z,100081.66
2023-05-05T20:52:22.422Z,100081.13
2023-05-05T20:54:55.614Z,100075.28
2023-05-05T20:57:28.671Z,100073.06
2023-05-05T20:59:59.002Z,100078.84
2023-05-05T21:02:32.078Z,100073.50
2023-05-05T21:05:03.166Z,100076.16
2023-05-05T21:07:38.365Z,100066.13
2023-05-05T21:10:10.869Z,100073.28
2023-05-05T21:12:44.582Z,100075.41
2023-05-05T21:15:16.942Z,100076.84
2023-05-05T21:17:48.743Z,100073.97
2023-05-05T21:20:19.133Z,100066.31
2023-05-05T21:22:49.697Z,100074.06
2023-05-05T21:25:23.855Z,100065.53
2023-05-05T21:27:57.027Z,100069.63
2023-05-05T21:30:27.535Z,100075.44
2023-05-05T21:32:57.904Z,100068.44
2023-05-05T21:35:31.350Z,100057.53
2023-05-05T21:38:04.646Z,100055.34
2023-05-05T21:40:52.114Z,100056.84
2023-05-05T21:43:25.311Z,100059.06
2023-05-05T21:46:01.528Z,100052.38
2023-05-05T21:48:33.629Z,100061.34
2023-05-05T21:51:04.111Z,100054.81
2023-05-05T21:53:34.899Z,100048.78
2023-05-05T21:56:05.628Z,100050.25
2023-05-05T21:58:41.500Z,100052.38
2023-05-05T22:01:11.793Z,100049.19
2023-05-05T22:03:43.821Z,100049.63
2023-05-05T22:06:14.996Z,100046.44
2023-05-05T22:08:45.444Z,100045.59
2023-05-05T22:11:19.324Z,100042.56
2023-05-05T22:13:52.071Z,100044.38
2023-05-05T22:16:22.411Z,100053.66
2023-05-05T22:18:55.509Z,100038.00
2023-05-05T22:21:27.757Z,100033.28
2023-05-05T22:23:58.315Z,100034.13
2023-05-05T22:26:28.652Z,100033.88
2023-05-05T22:29:01.740Z,100029.16
2023-05-05T22:31:32.138Z,100019.66
2023-05-05T22:34:02.613Z,100020.13
2023-05-05T22:36:32.925Z,100022.94
2023-05-05T22:39:05.229Z,100028.53
2023-05-05T22:41:38.751Z,100031.34
2023-05-05T22:44:12.161Z,100025.31
2023-05-05T22:46:43.501Z,100023.81
2023-05-05T22:49:16.205Z,100019.75
2023-05-05T22:51:48.609Z,100028.16
2023-05-05T22:54:21.774Z,100025.38
2023-05-05T22:56:53.245Z,100027.50
2023-05-05T22:59:26.377Z,100037.28
2023-05-05T23:01:56.711Z,100037.72
2023-05-05T23:04:27.443Z,100037.03
2023-05-05T23:06:57.813Z,100040.13
2023-05-05T23:09:28.218Z,100040.13
2023-05-05T23:11:58.448Z,100047.25
2023-05-05T23:14:34.264Z,100043.19
2023-05-05T23:17:04.608Z,100044.28
2023-05-05T23:19:35.217Z,100042.75
2023-05-05T23:22:07.077Z,100040.09
2023-05-05T23:24:38.588Z,100042.06
2023-05-05T23:27:11.937Z,100040.56
2023-05-05T23:29:44.939Z,100038.06
2023-05-05T23:32:16.035Z,100029.00
2023-05-05T23:34:46.498Z,100031.66
2023-05-05T23:37:17.246Z,100041.56
2023-05-05T23:39:47.582Z,100040.44
2023-05-05T23:42:18.981Z,100038.22
2023-05-05T23:44:53.042Z,100035.41
2023-05-05T23:47:23.842Z,100037.66
2023-05-05T23:49:54.299Z,100031.09
2023-05-05T23:52:25.165Z,100035.88
2023-05-05T23:54:55.591Z,100033.38
2023-05-05T23:57:25.805Z,100040.94
